Time;durP1;ratioP1;P1;durP2;ratioP2;P2;SDS_P1;SDS_P2;PMS_P1;PMS_P2;Temp;Humidity;BMP_temperature;BMP_pressure;BME280_temperature;BME280_humidity;BME280_pressure;Samples;Min_cycle;Max_cycle;Signal;HPM_P1;HPM_P2
2022/11/08 00:02:01;;;;;;;13.77;3.33;;;12.50;99.90;;;;;;4995720;28;20050;-81
2022/11/08 00:04:27;;;;;;;14.65;3.20;;;12.50;99.90;;;;;;5013035;28;20050;-81
2022/11/08 00:15:08;;;;;;;13.98;3.70;;;12.60;99.90;;;;;;4994644;28;20050;-80
2022/11/08 00:17:34;;;;;;;20.77;4.38;;;12.60;99.90;;;;;;4995597;28;20057;-83
2022/11/08 00:20:00;;;;;;;13.82;3.88;;;12.60;99.90;;;;;;4998212;28;20045;-81
2022/11/08 00:22:30;;;;;;;14.13;3.22;;;12.60;99.90;;;;;;5016846;28;20553;-81
2022/11/08 00:24:56;;;;;;;13.55;3.15;;;12.60;99.90;;;;;;5012655;28;20681;-82
2022/11/08 00:27:23;;;;;;;18.77;4.10;;;12.60;99.90;;;;;;5012260;28;20057;-84
2022/11/08 00:29:49;;;;;;;12.98;3.55;;;12.60;99.90;;;;;;4978363;28;20057;-83
2022/11/08 00:32:18;;;;;;;17.75;3.65;;;12.60;99.90;;;;;;4994792;28;20046;-82
2022/11/08 00:34:44;;;;;;;15.13;3.30;;;12.60;99.90;;;;;;4994655;28;20049;-85
2022/11/08 00:37:11;;;;;;;14.93;3.80;;;12.70;99.90;;;;;;5015060;28;20054;-85
2022/11/08 00:39:37;;;;;;;14.90;3.30;;;12.60;99.90;;;;;;4997248;28;20050;-80
2022/11/08 00:42:03;;;;;;;20.05;5.05;;;12.60;99.90;;;;;;4994258;28;20195;-83
2022/11/08 00:44:29;;;;;;;20.38;3.85;;;12.60;99.90;;;;;;4994451;28;20050;-84
2022/11/08 00:46:55;;;;;;;15.25;4.18;;;12.60;99.90;;;;;;4994499;28;20046;-82
2022/11/08 00:49:21;;;;;;;20.80;4.63;;;12.60;99.90;;;;;;4994279;28;20050;-84
2022/11/08 00:51:47;;;;;;;16.00;3.85;;;12.60;99.90;;;;;;5011802;28;20117;-81
2022/11/08 00:54:16;;;;;;;15.98;3.47;;;12.60;99.90;;;;;;5016187;28;20073;-82
2022/11/08 00:56:42;;;;;;;17.65;4.20;;;12.60;99.90;;;;;;4994657;28;20053;-85
2022/11/08 00:59:13;;;;;;;12.32;3.15;;;12.60;99.90;;;;;;4994884;28;20050;-82
2022/11/08 01:01:39;;;;;;;14.18;3.70;;;12.70;99.90;;;;;;5012223;28;20061;-83
2022/11/08 01:04:06;;;;;;;17.38;4.63;;;12.60;99.90;;;;;;5011866;28;20108;-82
2022/11/08 01:06:32;;;;;;;13.63;3.63;;;12.60;99.90;;;;;;4977765;28;20049;-82
2022/11/08 01:08:57;;;;;;;19.85;3.95;;;12.60;99.90;;;;;;4993975;28;20112;-81
2022/11/08 01:11:25;;;;;;;11.38;3.42;;;12.60;99.90;;;;;;4997371;28;20058;-80
2022/11/08 01:13:51;;;;;;;20.02;4.07;;;12.60;99.90;;;;;;4994161;28;20524;-82
2022/11/08 01:16:21;;;;;;;14.02;3.20;;;12.50;99.90;;;;;;4997505;28;20386;-82
2022/11/08 01:18:49;;;;;;;13.02;3.65;;;12.60;99.90;;;;;;5014656;28;20133;-81
2022/11/08 01:21:16;;;;;;;10.63;3.55;;;12.50;99.90;;;;;;5011716;28;20042;-81
2022/11/08 01:23:42;;;;;;;16.25;4.80;;;12.50;99.90;;;;;;5011633;28;20092;-80
2022/11/08 01:26:12;;;;;;;15.90;3.33;;;12.60;99.90;;;;;;4995088;28;20085;-82
2022/11/08 01:28:39;;;;;;;17.10;3.35;;;12.50;99.90;;;;;;5011365;28;20496;-82
2022/11/08 01:31:11;;;;;;;22.38;4.25;;;12.50;99.90;;;;;;4993951;28;20112;-82
2022/11/08 01:33:37;;;;;;;10.82;3.03;;;12.50;99.90;;;;;;4993974;28;20374;-82
2022/11/08 01:36:11;;;;;;;22.40;4.07;;;12.60;99.90;;;;;;4993884;28;20076;-82
2022/11/08 01:38:38;;;;;;;12.48;3.35;;;12.50;99.90;;;;;;4999263;28;20050;-81
2022/11/08 01:41:04;;;;;;;13.30;3.67;;;12.60;99.90;;;;;;5013879;28;20109;-81
2022/11/08 01:43:30;;;;;;;10.35;2.75;;;12.50;99.90;;;;;;4977405;28;20057;-81
2022/11/08 01:46:17;;;;;;;11.80;3.17;;;12.50;99.90;;;;;;5011052;28;20498;-84
2022/11/08 01:49:05;;;;;;;12.98;2.75;;;12.60;99.90;;;;;;5011301;28;20238;-81
2022/11/08 01:51:39;;;;;;;21.48;4.10;;;12.60;99.90;;;;;;4995378;28;20057;-82
2022/11/08 01:54:09;;;;;;;16.75;3.22;;;12.50;99.90;;;;;;4995962;28;20053;-81
2022/11/08 01:56:37;;;;;;;10.15;3.40;;;12.50;99.90;;;;;;4993805;28;20057;-81
2022/11/08 01:59:08;;;;;;;11.45;3.25;;;12.40;99.90;;;;;;4993342;28;20079;-82
2022/11/08 02:01:34;;;;;;;14.68;3.28;;;12.40;99.90;;;;;;4996516;28;20471;-81
2022/11/08 02:04:01;;;;;;;10.27;2.80;;;12.40;99.90;;;;;;5011123;28;20054;-82
2022/11/08 02:06:29;;;;;;;15.60;3.00;;;12.40;99.90;;;;;;5013940;28;20049;-84
2022/11/08 02:08:59;;;;;;;16.05;3.45;;;12.30;99.90;;;;;;5016415;28;20371;-81
2022/11/08 02:11:27;;;;;;;15.32;2.90;;;12.20;99.90;;;;;;5015149;28;20100;-80
2022/11/08 02:13:54;;;;;;;16.33;3.20;;;12.20;99.90;;;;;;4997078;28;20093;-82
2022/11/08 02:16:19;;;;;;;12.32;4.00;;;12.10;99.90;;;;;;4997550;28;20078;-82
2022/11/08 02:18:47;;;;;;;14.68;3.65;;;12.10;99.90;;;;;;5015496;28;20103;-83
2022/11/08 02:21:38;;;;;;;18.88;3.22;;;12.10;99.90;;;;;;5018139;28;20053;-81
2022/11/08 02:24:12;;;;;;;18.38;3.47;;;12.10;99.90;;;;;;5014472;28;20093;-82
2022/11/08 02:26:38;;;;;;;13.85;3.05;;;12.00;99.90;;;;;;4996872;28;20509;-82
2022/11/08 02:29:28;;;;;;;17.30;3.67;;;12.00;99.90;;;;;;4980458;28;20060;-81
2022/11/08 02:31:56;;;;;;;14.98;3.60;;;11.90;99.90;;;;;;5014225;28;20050;-81
2022/11/08 02:34:47;;;;;;;11.30;3.50;;;11.80;99.90;;;;;;5000942;28;20100;-82
2022/11/08 02:37:17;;;;;;;16.77;2.60;;;11.80;99.90;;;;;;5016465;28;20045;-82
2022/11/08 02:39:44;;;;;;;12.88;3.58;;;11.80;99.90;;;;;;5014650;28;20052;-81
2022/11/08 02:42:15;;;;;;;11.20;2.92;;;11.70;99.90;;;;;;4996513;28;20053;-81
2022/11/08 02:44:41;;;;;;;16.48;3.60;;;11.70;99.90;;;;;;5014043;28;20580;-84
2022/11/08 02:47:07;;;;;;;13.23;2.78;;;11.60;99.90;;;;;;5015901;28;20042;-82
2022/11/08 02:49:32;;;;;;;14.98;3.20;;;11.60;99.90;;;;;;4996668;28;20513;-81
2022/11/08 02:51:59;;;;;;;11.80;3.30;;;11.50;99.90;;;;;;4996955;28;20045;-85
2022/11/08 02:54:24;;;;;;;10.75;2.78;;;11.50;99.90;;;;;;5015306;28;20054;-83
2022/11/08 02:56:50;;;;;;;14.25;3.95;;;11.50;99.90;;;;;;5013830;28;20557;-81
2022/11/08 02:59:16;;;;;;;12.80;4.07;;;11.50;99.90;;;;;;5015908;28;20062;-82
2022/11/08 03:01:42;;;;;;;12.02;3.30;;;11.50;99.90;;;;;;5000511;28;20053;-82
2022/11/08 03:04:08;;;;;;;13.70;2.97;;;11.40;99.90;;;;;;4980138;28;20132;-82
2022/11/08 03:06:34;;;;;;;13.43;3.10;;;11.40;99.90;;;;;;5016473;28;20425;-80
2022/11/08 03:09:00;;;;;;;13.55;3.55;;;11.40;99.90;;;;;;5014357;28;20057;-81
2022/11/08 03:11:25;;;;;;;11.63;3.65;;;11.40;99.90;;;;;;5013722;28;20057;-83
2022/11/08 03:13:51;;;;;;;17.40;3.78;;;11.40;99.90;;;;;;4998849;28;20111;-81
2022/11/08 03:16:17;;;;;;;11.88;3.15;;;11.40;99.90;;;;;;5020314;28;20165;-83
2022/11/08 03:18:43;;;;;;;12.43;3.33;;;11.40;99.90;;;;;;5018706;28;20049;-85
2022/11/08 03:21:09;;;;;;;14.98;2.92;;;11.30;99.90;;;;;;5004565;28;20081;-83
2022/11/08 03:23:36;;;;;;;11.27;2.88;;;11.30;99.90;;;;;;4998843;28;20054;-80
2022/11/08 03:26:02;;;;;;;10.30;2.80;;;11.30;99.90;;;;;;5014796;28;20524;-82
2022/11/08 03:28:28;;;;;;;10.80;2.92;;;11.20;99.90;;;;;;5019609;28;20109;-82
2022/11/08 03:30:54;;;;;;;11.55;3.45;;;11.30;99.90;;;;;;5013505;28;20072;-81
2022/11/08 03:33:20;;;;;;;13.30;3.00;;;11.20;99.90;;;;;;4995720;28;20490;-82
2022/11/08 03:35:47;;;;;;;12.55;3.03;;;11.20;99.90;;;;;;5014644;28;20050;-81
2022/11/08 03:38:14;;;;;;;19.17;3.22;;;11.20;99.90;;;;;;5015211;28;20124;-83
2022/11/08 03:40:41;;;;;;;12.55;2.90;;;11.20;99.90;;;;;;5001498;28;20060;-83
2022/11/08 03:43:08;;;;;;;12.90;3.55;;;11.20;99.90;;;;;;4996203;28;20120;-83
2022/11/08 03:45:34;;;;;;;14.32;3.30;;;11.20;99.90;;;;;;4994978;28;20054;-80
2022/11/08 03:47:59;;;;;;;14.88;3.03;;;11.10;99.90;;;;;;5013552;28;20054;-83
2022/11/08 03:50:25;;;;;;;14.85;3.00;;;11.10;99.90;;;;;;5000344;28;20452;-82
2022/11/08 03:52:53;;;;;;;12.25;3.08;;;11.10;99.90;;;;;;5013976;28;20045;-84
2022/11/08 03:55:22;;;;;;;14.70;2.83;;;11.10;99.90;;;;;;5017496;28;20058;-82
2022/11/08 03:57:49;;;;;;;11.05;2.80;;;11.10;99.90;;;;;;5013507;28;20050;-82
2022/11/08 04:00:18;;;;;;;10.35;2.42;;;11.10;99.90;;;;;;4995008;28;20068;-83
2022/11/08 04:02:44;;;;;;;11.40;3.10;;;11.10;99.90;;;;;;5012589;28;20054;-83
2022/11/08 04:05:12;;;;;;;14.05;2.63;;;11.20;99.90;;;;;;5013027;28;20073;-83
2022/11/08 04:07:38;;;;;;;12.15;3.10;;;11.10;99.90;;;;;;5014326;28;20690;-81
2022/11/08 04:10:07;;;;;;;7.85;2.30;;;11.10;99.90;;;;;;4996431;28;20058;-81
2022/11/08 04:15:21;;;;;;;10.20;2.50;;;11.10;99.90;;;;;;5012859;28;20057;-81
2022/11/08 04:23:27;;;;;;;11.50;2.75;;;11.00;99.90;;;;;;5013518;28;20049;-82
2022/11/08 04:25:55;;;;;;;15.55;3.08;;;11.00;99.90;;;;;;5014922;28;20490;-83
2022/11/08 04:28:25;;;;;;;11.60;2.85;;;10.90;99.90;;;;;;5011819;28;20053;-83
2022/11/08 04:30:53;;;;;;;13.07;3.00;;;10.90;99.90;;;;;;5013404;28;20103;-81
2022/11/08 04:33:19;;;;;;;13.63;3.83;;;10.90;99.90;;;;;;4996079;28;20062;-82
2022/11/08 04:35:45;;;;;;;11.77;3.17;;;10.80;99.90;;;;;;4995035;28;20174;-81
2022/11/08 04:38:11;;;;;;;11.88;2.88;;;10.80;99.90;;;;;;5017724;28;20084;-82
2022/11/08 04:40:36;;;;;;;9.05;3.00;;;10.80;99.90;;;;;;5013162;28;20054;-81
2022/11/08 04:43:02;;;;;;;14.35;3.20;;;10.80;99.90;;;;;;4994367;28;20061;-82
2022/11/08 04:45:28;;;;;;;12.15;3.50;;;10.80;99.90;;;;;;5013046;28;20132;-81
2022/11/08 04:47:54;;;;;;;14.30;2.78;;;10.80;99.90;;;;;;4994430;28;20137;-82
2022/11/08 04:50:20;;;;;;;16.80;3.28;;;10.80;99.90;;;;;;4978656;28;20137;-82
2022/11/08 04:52:54;;;;;;;11.00;3.45;;;10.90;99.90;;;;;;4998423;28;20401;-82
2022/11/08 04:55:21;;;;;;;10.30;3.67;;;10.90;99.90;;;;;;4999588;28;20042;-83
2022/11/08 04:57:48;;;;;;;12.32;2.85;;;10.90;99.90;;;;;;5014153;28;20050;-83
2022/11/08 05:00:15;;;;;;;10.13;3.20;;;10.90;99.90;;;;;;4995710;28;20058;-81
2022/11/08 05:02:42;;;;;;;17.40;3.97;;;10.90;99.90;;;;;;5012159;28;20049;-81
2022/11/08 05:05:08;;;;;;;11.90;3.70;;;10.90;99.90;;;;;;5013372;28;20058;-81
2022/11/08 05:07:34;;;;;;;13.75;3.25;;;11.00;99.90;;;;;;4998556;28;20073;-82
2022/11/08 05:10:00;;;;;;;9.15;2.88;;;11.00;99.90;;;;;;5016317;28;20080;-82
2022/11/08 05:12:26;;;;;;;11.75;2.97;;;11.00;99.90;;;;;;4996581;28;20397;-82
2022/11/08 05:14:52;;;;;;;10.60;3.70;;;11.10;99.90;;;;;;5014354;28;20068;-85
2022/11/08 05:17:18;;;;;;;6.90;2.58;;;11.10;99.90;;;;;;4995524;28;20046;-84
2022/11/08 05:25:13;;;;;;;13.43;3.45;;;11.10;99.90;;;;;;5012497;28;20487;-83
2022/11/08 05:27:39;;;;;;;10.38;2.60;;;11.10;99.90;;;;;;4993769;28;20065;-81
2022/11/08 05:30:05;;;;;;;12.65;2.53;;;11.10;99.90;;;;;;5011341;28;20084;-82
2022/11/08 05:32:31;;;;;;;10.55;2.97;;;11.00;99.90;;;;;;4998389;28;20045;-82
2022/11/08 05:34:57;;;;;;;10.55;2.72;;;11.00;99.90;;;;;;4998942;28;20490;-82
2022/11/08 05:37:23;;;;;;;12.25;3.25;;;11.00;99.90;;;;;;4998157;28;20057;-83
2022/11/08 05:39:49;;;;;;;14.57;2.92;;;11.00;99.90;;;;;;4982102;28;20049;-84
2022/11/08 05:42:15;;;;;;;9.85;3.53;;;10.90;99.90;;;;;;4996510;28;20049;-81
2022/11/08 05:44:41;;;;;;;12.63;3.40;;;10.90;99.90;;;;;;4993293;28;20493;-82
2022/11/08 05:47:07;;;;;;;10.82;2.97;;;10.90;99.90;;;;;;5016400;28;20046;-83
2022/11/08 05:49:33;;;;;;;7.88;2.80;;;10.80;99.90;;;;;;5011909;28;20054;-82
2022/11/08 05:51:59;;;;;;;12.10;4.38;;;10.80;99.90;;;;;;4993605;28;20139;-82
2022/11/08 05:54:25;;;;;;;14.90;4.22;;;10.70;99.90;;;;;;5011295;28;20058;-81
2022/11/08 05:56:51;;;;;;;9.65;3.20;;;10.70;99.90;;;;;;4993838;28;20053;-82
2022/11/08 05:59:20;;;;;;;14.15;3.20;;;10.70;99.90;;;;;;4994259;28;20057;-82
2022/11/08 06:01:46;;;;;;;9.73;3.10;;;10.60;99.90;;;;;;4995635;28;20832;-81
2022/11/08 06:04:14;;;;;;;12.35;2.92;;;10.60;99.90;;;;;;4995353;28;20165;-85
2022/11/08 06:06:41;;;;;;;9.48;3.75;;;10.60;99.90;;;;;;4993297;28;20133;-82
2022/11/08 06:09:07;;;;;;;9.63;3.00;;;10.60;99.90;;;;;;5010961;28;20049;-82
2022/11/08 06:11:33;;;;;;;12.60;3.30;;;10.60;99.90;;;;;;4994360;28;20049;-82
2022/11/08 06:13:59;;;;;;;8.63;2.80;;;10.50;99.90;;;;;;5010402;28;20414;-82
2022/11/08 06:16:25;;;;;;;11.07;3.30;;;10.50;99.90;;;;;;4977758;28;20053;-82
2022/11/08 06:18:51;;;;;;;9.60;2.80;;;10.60;99.90;;;;;;4997816;28;20112;-83
2022/11/08 06:21:19;;;;;;;13.30;3.17;;;10.50;99.90;;;;;;4976971;28;20058;-84
2022/11/08 06:23:45;;;;;;;11.98;3.70;;;10.50;99.90;;;;;;5010331;28;20046;-85
2022/11/08 06:26:11;;;;;;;14.05;4.00;;;10.50;99.90;;;;;;5010787;28;20060;-83
2022/11/08 06:28:37;;;;;;;11.18;3.00;;;10.60;99.90;;;;;;5010713;28;20058;-82
2022/11/08 06:31:03;;;;;;;11.38;3.08;;;10.60;99.90;;;;;;4996321;28;20511;-83
2022/11/08 06:33:30;;;;;;;17.17;4.97;;;10.60;99.90;;;;;;4993653;28;20057;-82
2022/11/08 06:35:56;;;;;;;8.48;2.80;;;10.60;99.90;;;;;;5010627;28;20128;-83
2022/11/08 06:38:22;;;;;;;10.40;3.50;;;10.60;99.90;;;;;;4994961;28;20050;-82
2022/11/08 06:40:48;;;;;;;13.50;3.10;;;10.60;99.90;;;;;;4994310;28;20481;-85
2022/11/08 06:43:14;;;;;;;10.45;3.10;;;10.60;99.90;;;;;;4976943;28;20085;-82
2022/11/08 06:45:40;;;;;;;8.95;2.63;;;10.60;99.90;;;;;;4996499;28;20046;-83
2022/11/08 06:48:08;;;;;;;9.57;2.22;;;10.60;99.90;;;;;;4992926;28;20058;-81
2022/11/08 06:50:35;;;;;;;11.10;3.13;;;10.60;99.90;;;;;;5010723;28;20077;-81
2022/11/08 06:53:04;;;;;;;8.65;2.22;;;10.60;99.90;;;;;;4994930;28;20052;-80
2022/11/08 06:55:31;;;;;;;11.70;2.70;;;10.60;99.90;;;;;;4996773;28;20042;-81
2022/11/08 06:57:57;;;;;;;14.60;2.92;;;10.60;99.90;;;;;;5018200;28;20050;-84
2022/11/08 07:00:23;;;;;;;15.15;3.97;;;10.60;99.90;;;;;;5016962;28;20081;-82
2022/11/08 07:02:56;;;;;;;23.65;3.47;;;10.60;99.90;;;;;;5014097;28;20056;-81
2022/11/08 07:05:23;;;;;;;15.93;3.00;;;10.60;99.90;;;;;;5014020;28;20042;-82
2022/11/08 07:07:52;;;;;;;9.98;2.38;;;10.60;99.90;;;;;;4995941;28;20049;-81
2022/11/08 07:10:23;;;;;;;11.98;2.85;;;10.70;99.90;;;;;;4996209;28;20199;-83
2022/11/08 07:12:58;;;;;;;9.27;2.90;;;10.70;99.90;;;;;;4983715;28;20086;-82
2022/11/08 07:15:24;;;;;;;12.63;2.40;;;10.70;99.90;;;;;;5013645;28;20053;-82
2022/11/08 07:17:50;;;;;;;10.23;2.50;;;10.70;99.90;;;;;;5013774;28;20049;-84
2022/11/08 07:20:16;;;;;;;8.65;2.33;;;10.80;99.90;;;;;;5014269;28;20052;-84
2022/11/08 07:22:42;;;;;;;5.88;2.10;;;10.80;99.90;;;;;;4996546;28;20054;-82
2022/11/08 07:25:08;;;;;;;10.32;2.95;;;10.80;99.90;;;;;;4997613;28;20053;-81
2022/11/08 07:27:34;;;;;;;8.95;3.08;;;10.80;99.90;;;;;;5017022;28;20054;-82
2022/11/08 07:30:00;;;;;;;12.45;2.25;;;10.80;99.90;;;;;;5019260;28;20054;-83
2022/11/08 07:32:26;;;;;;;6.35;2.20;;;10.90;99.90;;;;;;5016527;28;20096;-83
2022/11/08 07:34:52;;;;;;;11.48;2.47;;;10.90;99.90;;;;;;5013507;28;20129;-82
2022/11/08 07:37:18;;;;;;;11.43;2.25;;;10.90;99.90;;;;;;4995410;28;20140;-82
2022/11/08 07:39:44;;;;;;;8.88;2.30;;;10.90;99.90;;;;;;5014009;28;20437;-81
2022/11/08 07:42:10;;;;;;;9.35;2.30;;;10.90;99.90;;;;;;4995831;28;20040;-81
2022/11/08 07:44:36;;;;;;;9.98;2.40;;;11.00;99.90;;;;;;5017915;28;20050;-83
2022/11/08 07:47:02;;;;;;;7.68;2.72;;;11.00;99.90;;;;;;4995659;28;20042;-82
2022/11/08 07:49:28;;;;;;;8.45;2.90;;;11.00;99.90;;;;;;5013031;28;20128;-83
2022/11/08 07:51:53;;;;;;;6.97;2.30;;;11.10;99.90;;;;;;5013183;28;20054;-82
2022/11/08 07:54:19;;;;;;;9.20;3.28;;;11.10;99.90;;;;;;5012889;28;20060;-83
2022/11/08 07:56:45;;;;;;;11.70;2.80;;;11.10;99.90;;;;;;4998673;28;20085;-82
2022/11/08 07:59:11;;;;;;;10.45;2.10;;;11.10;99.90;;;;;;5012772;28;20081;-82
2022/11/08 08:01:37;;;;;;;8.32;2.17;;;11.20;99.90;;;;;;4997254;28;20061;-81
2022/11/08 08:04:03;;;;;;;9.30;2.45;;;11.20;99.90;;;;;;4997214;28;20061;-84
2022/11/08 08:06:29;;;;;;;5.70;2.70;;;11.20;99.90;;;;;;4979335;28;20064;-83
2022/11/08 08:08:56;;;;;;;6.35;2.28;;;11.20;99.90;;;;;;4997988;28;20506;-83
2022/11/08 08:11:21;;;;;;;8.98;2.38;;;11.30;99.90;;;;;;5012498;28;20042;-82
2022/11/08 08:13:48;;;;;;;6.72;2.67;;;11.30;99.90;;;;;;4994723;28;20054;-83
2022/11/08 08:16:14;;;;;;;10.43;3.40;;;11.30;99.90;;;;;;5012671;28;20061;-83
2022/11/08 08:18:39;;;;;;;10.15;3.28;;;11.40;99.90;;;;;;5013002;28;20049;-84
2022/11/08 08:21:05;;;;;;;9.48;3.25;;;11.40;99.90;;;;;;4995721;28;20057;-83
2022/11/08 08:23:31;;;;;;;11.82;3.13;;;11.50;99.90;;;;;;5000417;28;20498;-82
2022/11/08 08:26:00;;;;;;;10.57;2.97;;;11.50;99.90;;;;;;4962956;28;20057;-82
2022/11/08 08:28:26;;;;;;;7.25;2.60;;;11.50;99.90;;;;;;4994845;28;20450;-82
2022/11/08 08:30:51;;;;;;;10.45;2.85;;;11.60;99.90;;;;;;5012305;28;20061;-83
2022/11/08 08:33:17;;;;;;;11.02;3.00;;;11.60;99.90;;;;;;5012349;28;20486;-83
2022/11/08 08:35:43;;;;;;;10.25;2.67;;;11.70;99.90;;;;;;4995605;28;20049;-85
2022/11/08 08:38:11;;;;;;;9.80;3.03;;;11.70;99.90;;;;;;4997378;28;20082;-83
2022/11/08 08:40:38;;;;;;;11.13;2.78;;;11.80;99.90;;;;;;4978277;28;20061;-82
2022/11/08 08:43:04;;;;;;;9.43;2.67;;;11.90;99.90;;;;;;5011899;28;20053;-85
2022/11/08 08:45:34;;;;;;;7.43;2.45;;;12.00;99.90;;;;;;4994578;28;20107;-82
2022/11/08 08:48:01;;;;;;;13.18;3.28;;;12.00;99.90;;;;;;4994000;28;20140;-85
2022/11/08 08:50:29;;;;;;;8.15;2.95;;;12.00;99.90;;;;;;4995322;28;20060;-83
2022/11/08 08:52:58;;;;;;;11.60;3.03;;;12.10;99.90;;;;;;4998052;28;20058;-85
2022/11/08 08:55:25;;;;;;;12.55;3.53;;;12.10;99.90;;;;;;4994297;28;20076;-86
2022/11/08 08:57:51;;;;;;;7.65;3.00;;;12.10;99.90;;;;;;4994848;28;20149;-85
2022/11/08 09:00:19;;;;;;;9.90;3.38;;;12.10;99.90;;;;;;4995693;28;20145;-84
2022/11/08 09:02:45;;;;;;;8.55;3.85;;;12.20;99.90;;;;;;5015183;28;20136;-84
2022/11/08 09:05:12;;;;;;;9.02;2.78;;;12.20;99.90;;;;;;5012231;28;20054;-86
2022/11/08 09:07:39;;;;;;;7.53;2.75;;;12.30;99.90;;;;;;4993986;28;20141;-86
2022/11/08 09:10:06;;;;;;;8.45;3.00;;;12.40;99.90;;;;;;4994184;28;20137;-84
2022/11/08 09:12:33;;;;;;;7.13;2.70;;;12.40;99.90;;;;;;5011384;28;20097;-81
2022/11/08 09:14:59;;;;;;;9.02;2.88;;;12.40;99.90;;;;;;4996585;28;20068;-83
2022/11/08 09:17:28;;;;;;;8.00;2.83;;;12.40;99.90;;;;;;4993754;28;20080;-83
2022/11/08 09:19:55;;;;;;;7.32;3.20;;;12.50;99.90;;;;;;5011799;28;20050;-86
2022/11/08 09:22:21;;;;;;;7.03;2.50;;;12.50;99.90;;;;;;5011531;28;20104;-83
2022/11/08 09:24:46;;;;;;;5.82;2.55;;;12.50;99.90;;;;;;5011403;28;20058;-85
2022/11/08 09:27:12;;;;;;;11.13;3.25;;;12.60;99.90;;;;;;5011624;28;20053;-80
2022/11/08 09:29:39;;;;;;;9.77;2.50;;;12.60;99.90;;;;;;4999359;28;20060;-82
2022/11/08 09:32:05;;;;;;;6.38;2.38;;;12.70;99.90;;;;;;4993673;28;20046;-83
2022/11/08 09:34:31;;;;;;;10.00;3.22;;;12.70;99.90;;;;;;5011592;28;20072;-84
2022/11/08 09:36:57;;;;;;;5.53;2.28;;;12.80;99.90;;;;;;4994049;28;20053;-81
2022/11/08 09:39:22;;;;;;;8.38;2.80;;;12.80;99.90;;;;;;5011144;28;20564;-81
2022/11/08 09:42:15;;;;;;;6.75;2.17;;;12.80;99.90;;;;;;4999240;28;20202;-81
2022/11/08 09:45:03;;;;;;;5.65;2.08;;;12.90;99.90;;;;;;4994359;28;20057;-84
2022/11/08 09:47:38;;;;;;;9.63;2.70;;;12.90;99.90;;;;;;4993781;28;20132;-82
2022/11/08 09:50:23;;;;;;;9.40;2.20;;;12.90;99.90;;;;;;5010934;28;20053;-82
2022/11/08 09:53:02;;;;;;;8.93;2.50;;;12.90;99.90;;;;;;5010869;28;20054;-82
2022/11/08 09:55:50;;;;;;;6.03;2.20;;;12.90;99.90;;;;;;4999758;28;20515;-82
2022/11/08 09:58:30;;;;;;;5.10;2.10;;;12.90;99.90;;;;;;4981395;28;20402;-84
2022/11/08 10:00:58;;;;;;;6.93;2.03;;;13.00;99.90;;;;;;5012787;28;20054;-85
2022/11/08 10:03:25;;;;;;;5.72;2.05;;;13.00;99.90;;;;;;5011319;28;20053;-80
2022/11/08 10:06:12;;;;;;;6.75;2.28;;;13.00;99.90;;;;;;5011068;28;20057;-81
2022/11/08 10:08:59;;;;;;;5.63;2.10;;;13.00;99.90;;;;;;5014718;28;20065;-82
2022/11/08 10:11:37;;;;;;;6.68;2.20;;;13.00;99.90;;;;;;5016061;28;20053;-81
2022/11/08 10:14:28;;;;;;;8.63;2.33;;;13.00;99.90;;;;;;4995034;28;20064;-82
2022/11/08 10:17:48;;;;;;;4.78;1.90;;;13.00;99.90;;;;;;4993581;28;20066;-82
2022/11/08 10:20:25;;;;;;;6.57;2.25;;;13.00;99.90;;;;;;4923699;29;20122;-86
2022/11/08 10:23:09;;;;;;;5.38;1.95;;;13.00;99.90;;;;;;5014613;28;20069;-83
2022/11/08 10:25:46;;;;;;;7.20;1.63;;;13.00;99.90;;;;;;5015195;28;20050;-83
2022/11/08 10:28:21;;;;;;;7.00;2.17;;;13.00;99.90;;;;;;4985728;28;20050;-81
2022/11/08 10:30:50;;;;;;;5.78;2.25;;;13.00;99.90;;;;;;5015687;28;20084;-81
2022/11/08 10:33:27;;;;;;;4.15;1.77;;;13.00;99.90;;;;;;5014764;28;20720;-84
2022/11/08 10:36:05;;;;;;;5.13;1.80;;;13.00;99.90;;;;;;5000541;28;20058;-84
2022/11/08 10:39:08;;;;;;;8.30;1.90;;;13.00;99.90;;;;;;5017340;28;20435;-83
2022/11/08 10:42:04;;;;;;;5.45;1.95;;;13.00;99.90;;;;;;5014811;28;20064;-83
2022/11/08 10:44:30;;;;;;;6.10;1.95;;;12.90;99.90;;;;;;4996238;28;20053;-81
2022/11/08 10:46:57;;;;;;;6.15;2.05;;;12.90;99.90;;;;;;5001350;28;20042;-82
2022/11/08 10:49:27;;;;;;;6.60;1.85;;;12.80;99.90;;;;;;4998711;28;20054;-82
2022/11/08 10:52:15;;;;;;;6.90;2.03;;;12.80;99.90;;;;;;5016384;28;20054;-83
2022/11/08 10:54:48;;;;;;;8.35;2.10;;;12.80;99.90;;;;;;5015996;28;20054;-81
2022/11/08 10:57:24;;;;;;;6.50;1.75;;;12.80;99.90;;;;;;5016182;28;20054;-81
2022/11/08 10:59:51;;;;;;;6.68;2.10;;;12.80;99.90;;;;;;4997683;28;20053;-83
2022/11/08 11:02:27;;;;;;;5.50;1.88;;;12.90;99.90;;;;;;4998101;28;20046;-83
2022/11/08 11:05:14;;;;;;;4.68;1.90;;;12.90;99.90;;;;;;5001726;28;20061;-82
2022/11/08 11:07:45;;;;;;;5.45;1.90;;;12.90;99.90;;;;;;5004035;28;20046;-82
2022/11/08 11:10:36;;;;;;;7.10;2.10;;;13.00;99.90;;;;;;5004143;28;20057;-85
2022/11/08 11:13:17;;;;;;;5.32;2.35;;;13.00;99.90;;;;;;4985047;28;20077;-83
2022/11/08 11:16:04;;;;;;;5.78;1.63;;;13.10;99.90;;;;;;5004339;28;20061;-84
2022/11/08 11:18:49;;;;;;;11.23;2.10;;;13.10;99.90;;;;;;5006274;28;20058;-82
2022/11/08 11:21:21;;;;;;;10.10;2.20;;;13.20;99.90;;;;;;5022245;28;20089;-83
2022/11/08 11:23:50;;;;;;;11.07;2.35;;;13.30;99.90;;;;;;5013703;28;20061;-82
2022/11/08 11:26:33;;;;;;;5.88;1.58;;;13.30;99.90;;;;;;4997059;28;20066;-87
2022/11/08 11:29:05;;;;;;;5.95;1.80;;;13.40;99.90;;;;;;4996717;28;20050;-84
2022/11/08 11:31:40;;;;;;;4.97;1.52;;;13.50;99.90;;;;;;4995902;28;20093;-84
2022/11/08 11:34:18;;;;;;;5.53;1.77;;;13.50;99.90;;;;;;4995979;28;20502;-84
2022/11/08 11:36:47;;;;;;;4.75;1.98;;;13.60;99.90;;;;;;5002671;28;20053;-82
2022/11/08 11:39:31;;;;;;;5.60;1.88;;;13.60;99.90;;;;;;4997674;28;20107;-84
2022/11/08 11:42:05;;;;;;;4.73;1.80;;;13.60;99.90;;;;;;5013627;28;20108;-84
2022/11/08 11:44:43;;;;;;;6.00;1.70;;;13.70;99.90;;;;;;4995706;28;20563;-88
2022/11/08 11:47:13;;;;;;;5.97;1.88;;;13.70;99.90;;;;;;5015156;28;20292;-83
2022/11/08 11:49:44;;;;;;;7.35;2.03;;;13.80;99.90;;;;;;4995298;28;20054;-84
2022/11/08 11:52:18;;;;;;;7.28;1.80;;;13.80;99.90;;;;;;5014089;28;20046;-83
2022/11/08 11:54:48;;;;;;;4.18;1.85;;;14.00;99.90;;;;;;5016223;28;20192;-82
2022/11/08 11:57:33;;;;;;;5.55;1.83;;;14.10;99.90;;;;;;4995877;28;20053;-85
2022/11/08 12:00:13;;;;;;;5.50;1.60;;;14.40;99.90;;;;;;5013899;28;20136;-83
2022/11/08 12:03:00;;;;;;;4.90;1.35;;;14.80;99.90;;;;;;5015910;28;20123;-82
2022/11/08 12:05:49;;;;;;;8.43;1.85;;;15.30;99.90;;;;;;5013032;28;20053;-81
2022/11/08 12:08:21;;;;;;;5.80;1.67;;;15.80;99.90;;;;;;4998700;28;20060;-83
2022/11/08 12:11:24;;;;;;;5.22;1.42;;;16.10;99.90;;;;;;5014003;28;20058;-84
2022/11/08 12:14:26;;;;;;;5.55;1.90;;;16.60;99.90;;;;;;5015806;28;20100;-82
2022/11/08 12:17:37;;;;;;;8.70;1.42;;;16.80;99.90;;;;;;5014698;28;20050;-84
2022/11/08 12:20:23;;;;;;;4.72;1.60;;;16.30;99.90;;;;;;4947718;28;20056;-83
2022/11/08 12:23:17;;;;;;;4.03;1.60;;;16.20;99.90;;;;;;5013453;28;20123;-81
2022/11/08 12:25:48;;;;;;;9.35;1.83;;;16.40;99.90;;;;;;5015846;28;20129;-82
2022/11/08 12:28:54;;;;;;;7.38;1.60;;;16.70;99.90;;;;;;4995412;28;20085;-81
2022/11/08 12:31:58;;;;;;;6.97;1.60;;;16.90;99.90;;;;;;5013652;28;20108;-82
2022/11/08 12:34:53;;;;;;;3.42;1.30;;;17.10;99.90;;;;;;4998800;28;20052;-82
2022/11/08 12:37:52;;;;;;;4.82;1.83;;;17.20;99.90;;;;;;4987469;28;20501;-80
2022/11/08 12:40:40;;;;;;;4.93;1.55;;;17.30;99.90;;;;;;4994776;28;20085;-82
2022/11/08 12:43:41;;;;;;;7.35;1.60;;;17.30;99.90;;;;;;5011823;28;20085;-81
2022/11/08 12:46:11;;;;;;;6.60;2.08;;;17.10;99.90;;;;;;4993671;28;20088;-81
2022/11/08 12:49:07;;;;;;;11.25;1.88;;;16.70;99.90;;;;;;4998536;28;20054;-81
2022/11/08 12:51:42;;;;;;;;;;;17.00;99.90;;;;;;4994320;28;20143;-84
2022/11/08 12:54:33;;;;;;;5.68;1.67;;;16.90;99.90;;;;;;5012266;28;19976;-82
2022/11/08 12:57:04;;;;;;;5.63;1.45;;;16.70;99.90;;;;;;4994231;28;20144;-80
2022/11/08 12:59:41;;;;;;;3.08;1.17;;;16.30;99.90;;;;;;5012093;28;20458;-82
2022/11/08 13:02:23;;;;;;;5.75;1.60;;;16.10;99.90;;;;;;5017280;28;20068;-82
2022/11/08 13:04:48;;;;;;;4.75;1.75;;;16.00;99.90;;;;;;5011700;28;20050;-81
2022/11/08 13:07:52;;;;;;;4.00;1.30;;;15.90;99.90;;;;;;5012689;28;20129;-84
2022/11/08 13:10:39;;;;;;;6.20;1.40;;;15.80;99.90;;;;;;4967965;28;20061;-81
2022/11/08 13:13:36;;;;;;;5.38;1.73;;;15.90;99.90;;;;;;4995417;28;20053;-81
2022/11/08 13:16:23;;;;;;;6.55;1.90;;;15.80;99.90;;;;;;4998470;28;20524;-82
2022/11/08 13:18:50;;;;;;;3.95;1.33;;;15.80;99.90;;;;;;5012774;28;20050;-81
2022/11/08 13:21:36;;;;;;;6.22;1.83;;;15.90;99.90;;;;;;4993854;28;20120;-81
2022/11/08 13:24:05;;;;;;;6.57;1.83;;;15.90;99.90;;;;;;5011778;28;20046;-82